Weather at Hartsfield Jackson Atlanta International Airport

Public forecast

Using degrees Fahrenheit for public forecast. Weather courtesy of forecast.io.

Current aviation weather report (METAR) for Hartsfield Jackson Atlanta International Airport

Retrieved 2021/10/22 05:36 UTC (51 minutes ago):

KATL 220536Z 26008KT 3SM -RA BR FEW008 BKN045 BKN060 OVC250 19/17 A3004 RMK AO2 TSB0456E35 TS DSIPTD P0018 T01890167

Aviation forecast (TAF) for Hartsfield Jackson Atlanta International Airport

Retrieved 2021/10/22 06:24 UTC (3 minutes ago):

TAF KATL 220521Z 2206/2312 26012G20KT 4SM -TSRA BR SCT008 BKN020CB FM220700 25006KT P6SM VCSH SCT008 BKN012 TEMPO 2207/2209 6SM BR BKN008 FM220900 29005KT P6SM BKN015 FM221200 30006KT P6SM SCT015 SCT060 FM221500 29009KT P6SM FEW250 FM230200 31005KT P6SM SKC